Pagina principale
METAR-TAF:

METAR-TAF

Aeroporti :

Aeroporto Internazionale del Kuwait

Madinat al-Kuwait, Kuwait

latitudine: 29-13N, longitudine: 047-59E, altezza: 55 m

Osservazione

Il bollettino è stato emesso 58 minuti fa, alle 00:00 UTC
Vento 3 kt da ovest/nord-ovest
Temperature 30°C
Umidità 13%
Pressione 1000 hPa
Visibilità 10 km o più
nessuna nube inferiore a 1500 m e nessun cumulonembo

METAR: OKBK 160000Z 29003KT CAVOK 30/M01 Q1000 NOSIG

Ora: 03:58 (00:58 UTC)

Previsione

Il bollettino è stato emesso 2 ore e 13 minuti fa, alle 22:45 UTC
Previsione valida dal 16 alle 00 UTC al 17 alle 06 UTC
Vento 10 kt da nord-ovest
Visibilità 10 km o più
nessuna nube inferiore a 1500 m e nessun cumulonembo
Temporaneamente
dal 16 alle 00 UTC al 16 alle 05 UTC
Vento 3 kt da direzioni variabili

TAF: OKBK 152245Z 1600/1706 32010KT CAVOK TEMPO 1600/1605 VRB03KT

Osservazioni e previsioni meteorologiche di più di 4000 aeroporti (messaggi METAR e TAF).

Le stazioni disponibili sono rappresentate dai dischi gialli e rossi sulla carta.

Puntare il mouse per vedere il nome della stazione.

Clicca sopra per visualizzare le osservazioni e previsioni meteorologiche.

Per cambiare la mappa : fare clic sui pulsanti verdi con una croce nera per ingrandire, il pulsante verde con un trattino per diminuire, o sulla freccia verde per le mappe adiacenti.


METAR-TAF: